createdAt,value
2018-07-10T05:04:09.533Z,3.40
2018-07-10T05:09:12.867Z,3.90
2018-07-10T05:14:16.190Z,4.10
2018-07-10T05:25:13.398Z,5.50
2018-07-10T05:30:21.055Z,5.97
2018-07-10T05:35:24.387Z,5.20
2018-07-10T05:40:33.566Z,3.73
2018-07-10T05:45:36.903Z,3.10
2018-07-10T05:50:40.994Z,8.67
2018-07-10T05:55:44.319Z,3.80
2018-07-10T06:01:05.870Z,6.83
2018-07-10T06:06:09.202Z,5.63
2018-07-10T06:11:13.308Z,5.03
2018-07-10T06:16:16.703Z,6.03
2018-07-10T06:21:19.995Z,3.57
2018-07-10T06:26:23.322Z,3.20
2018-07-10T06:31:26.660Z,5.33
2018-07-10T06:36:30.015Z,3.30
2018-07-10T06:41:33.363Z,6.13
2018-07-10T06:46:36.695Z,2.83
2018-07-10T06:51:40.019Z,7.30
2018-07-10T06:56:44.126Z,3.43
2018-07-10T07:01:47.455Z,4.80
2018-07-10T07:06:50.782Z,3.93
2018-07-10T07:11:54.885Z,4.10
2018-07-10T07:16:58.230Z,4.33
2018-07-10T07:22:02.331Z,4.83
2018-07-10T07:27:05.661Z,5.83
2018-07-10T07:32:09.754Z,4.57
2018-07-10T07:37:13.083Z,3.13
2018-07-10T07:42:16.416Z,3.93
2018-07-10T07:47:20.510Z,2.43
2018-07-10T07:52:23.859Z,5.37
2018-07-10T07:57:27.196Z,5.63
2018-07-10T08:02:30.532Z,3.20
2018-07-10T08:07:33.867Z,6.17
2018-07-10T08:12:37.208Z,3.10
2018-07-10T08:17:40.538Z,2.77
2018-07-10T08:22:44.631Z,4.33
2018-07-10T08:27:47.980Z,4.47
2018-07-10T08:32:52.079Z,2.10
2018-07-10T08:37:55.402Z,2.33
2018-07-10T08:42:58.762Z,3.43
2018-07-10T08:48:02.107Z,3.17
2018-07-10T08:53:05.500Z,2.27
2018-07-10T08:58:08.828Z,2.67
2018-07-10T09:03:12.166Z,5.17
2018-07-10T09:08:15.491Z,4.00
2018-07-10T09:13:19.587Z,4.17
2018-07-10T09:18:22.914Z,3.50
2018-07-10T09:23:26.255Z,2.60
2018-07-10T09:28:30.386Z,5.63
2018-07-10T09:33:34.614Z,8.40
2018-07-10T09:38:38.606Z,2.73
2018-07-10T09:43:41.942Z,4.43
2018-07-10T09:48:45.283Z,3.37
2018-07-10T09:53:48.620Z,1.70
2018-07-10T09:58:51.962Z,4.20
2018-07-10T10:03:55.297Z,4.13
2018-07-10T10:08:58.634Z,4.23
2018-07-10T10:14:01.976Z,4.17
2018-07-10T10:19:05.312Z,2.70
2018-07-10T10:24:09.421Z,5.83
2018-07-10T10:29:12.762Z,5.50
2018-07-10T10:34:16.103Z,2.83
2018-07-10T10:39:34.866Z,3.00
2018-07-10T10:44:38.955Z,2.70
2018-07-10T10:50:10.040Z,2.93
2018-07-10T10:55:13.381Z,2.43
2018-07-10T11:00:28.574Z,2.80
2018-07-10T11:05:32.687Z,3.70
2018-07-10T11:11:00.799Z,3.93
2018-07-10T11:16:04.130Z,2.80
2018-07-10T11:21:07.481Z,2.07
2018-07-10T11:26:10.838Z,2.83
2018-07-10T11:31:14.932Z,2.20
2018-07-10T11:36:18.259Z,2.37
2018-07-10T11:41:21.602Z,2.53
2018-07-10T11:46:24.984Z,2.27
2018-07-10T11:51:28.424Z,2.40
2018-07-10T11:56:31.754Z,2.97
2018-07-10T12:01:35.147Z,1.83
2018-07-10T12:06:38.519Z,1.97
2018-07-10T12:11:41.912Z,2.23
2018-07-10T12:16:45.300Z,2.70
2018-07-10T12:21:48.691Z,2.90
2018-07-10T12:26:52.877Z,2.33
2018-07-10T12:31:56.267Z,2.23
2018-07-10T12:36:59.690Z,2.90
2018-07-10T12:42:03.026Z,5.07
2018-07-10T12:47:06.347Z,3.97
2018-07-10T12:52:09.680Z,3.23
2018-07-10T12:57:13.002Z,2.83
2018-07-10T13:02:17.107Z,1.97
2018-07-10T13:07:20.439Z,2.87
2018-07-10T13:12:23.762Z,5.07
2018-07-10T13:17:27.870Z,3.90
2018-07-10T13:22:31.198Z,3.47
2018-07-10T13:27:34.527Z,2.87
2018-07-10T13:32:38.617Z,2.73
2018-07-10T13:37:41.951Z,3.20
2018-07-10T13:42:45.283Z,3.00
2018-07-10T13:47:49.398Z,3.37
2018-07-10T13:52:52.723Z,3.10
2018-07-10T13:57:56.827Z,2.30
2018-07-10T14:03:00.154Z,3.23
2018-07-10T14:08:03.486Z,3.97
2018-07-10T14:13:07.583Z,3.17
2018-07-10T14:18:10.934Z,3.17
2018-07-10T14:23:15.303Z,4.30
2018-07-10T14:28:18.668Z,2.63
2018-07-10T14:33:22.786Z,2.13
2018-07-10T14:38:26.475Z,4.10
2018-07-10T14:43:29.825Z,5.30
2018-07-10T14:48:33.397Z,6.53
2018-07-10T14:53:36.746Z,10.03
2018-07-10T14:58:40.251Z,10.23
2018-07-10T15:03:43.643Z,11.73
2018-07-10T15:08:46.994Z,10.17
2018-07-10T15:13:50.335Z,10.50
2018-07-10T15:18:53.672Z,11.00
2018-07-10T15:23:56.996Z,9.20
2018-07-10T15:29:00.375Z,10.47
2018-07-10T15:34:03.716Z,9.50
2018-07-10T15:39:07.042Z,11.17
2018-07-10T15:44:10.377Z,9.57
2018-07-10T15:49:13.707Z,8.90
2018-07-10T15:54:17.038Z,8.47
2018-07-10T15:59:20.362Z,9.10
2018-07-10T16:04:23.687Z,8.73
2018-07-10T16:09:28.970Z,8.80
2018-07-10T16:14:32.299Z,9.00
2018-07-10T16:19:35.645Z,9.43
2018-07-10T16:24:38.985Z,8.83
2018-07-10T16:29:53.150Z,9.43
2018-07-10T16:34:56.470Z,9.67
2018-07-10T16:39:59.840Z,10.70
2018-07-10T16:45:03.947Z,8.30
2018-07-10T16:50:07.287Z,10.07
2018-07-10T16:55:11.382Z,10.50
2018-07-10T17:00:29.054Z,8.00
2018-07-10T17:05:33.158Z,9.00
2018-07-10T17:10:38.419Z,7.90
2018-07-10T17:15:41.762Z,7.87
2018-07-10T17:20:49.859Z,10.00
2018-07-10T17:25:53.203Z,11.30
2018-07-10T17:30:57.300Z,12.13
2018-07-10T17:36:00.647Z,9.30
2018-07-10T17:41:03.983Z,7.30
2018-07-10T17:46:07.330Z,9.20
2018-07-10T17:51:10.675Z,12.70
2018-07-10T17:56:14.040Z,9.13
2018-07-10T18:01:17.482Z,6.63
2018-07-10T18:06:21.642Z,7.43
2018-07-10T18:11:25.784Z,8.07
2018-07-10T18:16:29.156Z,5.77
2018-07-10T18:21:32.462Z,7.80
2018-07-10T18:26:35.792Z,7.67
2018-07-10T18:31:39.114Z,6.47
2018-07-10T18:36:43.199Z,6.53
2018-07-10T18:41:46.528Z,7.37
2018-07-10T18:46:49.856Z,6.83
2018-07-10T18:51:53.195Z,6.87
2018-07-10T18:56:57.354Z,6.83
2018-07-10T19:02:01.019Z,10.60
2018-07-10T19:07:05.489Z,8.73
2018-07-10T19:12:09.136Z,10.70
2018-07-10T19:17:12.585Z,10.90
2018-07-10T19:22:16.021Z,9.37
2018-07-10T19:27:19.364Z,11.03
2018-07-10T19:32:22.699Z,10.47
2018-07-10T19:37:26.036Z,9.20
2018-07-10T19:42:29.376Z,11.07
2018-07-10T19:47:33.477Z,9.50
2018-07-10T19:52:36.865Z,9.13
2018-07-10T19:57:40.934Z,10.27
2018-07-10T20:02:45.043Z,9.20
2018-07-10T20:07:48.378Z,9.73
2018-07-10T20:12:51.758Z,8.30
2018-07-10T20:17:55.051Z,8.87
2018-07-10T20:22:58.383Z,8.67
2018-07-10T20:28:01.727Z,7.97
2018-07-10T20:33:05.115Z,8.03
2018-07-10T20:38:09.166Z,10.20
2018-07-10T20:43:12.495Z,10.43
2018-07-10T20:48:16.587Z,9.33
2018-07-10T20:53:19.911Z,8.90
2018-07-10T20:58:23.248Z,8.63
2018-07-10T21:03:27.354Z,9.53
2018-07-10T21:08:30.690Z,8.83
2018-07-10T21:13:34.023Z,9.83
2018-07-10T21:18:37.358Z,10.43
2018-07-10T21:23:40.686Z,11.47
2018-07-10T21:28:44.024Z,9.50
2018-07-10T21:33:47.351Z,8.63
2018-07-10T21:38:50.695Z,9.93
2018-07-10T21:43:54.035Z,8.53
2018-07-10T21:48:57.379Z,10.73
2018-07-10T21:54:00.714Z,9.73
2018-07-10T21:59:04.815Z,11.67
2018-07-10T22:04:08.160Z,12.10
2018-07-10T22:09:12.291Z,10.00
2018-07-10T22:14:16.575Z,10.50
2018-07-10T22:19:19.933Z,9.87
2018-07-10T22:24:24.054Z,10.57
2018-07-10T22:29:27.542Z,11.23
